createdAt,value
2023-01-03T00:02:05.599Z,11.59
2023-01-03T00:04:32.614Z,12.24
2023-01-03T00:06:59.380Z,12.17
2023-01-03T00:09:25.876Z,11.97
2023-01-03T00:12:12.150Z,12.43
2023-01-03T00:14:40.393Z,12.89
2023-01-03T00:17:08.210Z,12.55
2023-01-03T00:19:36.754Z,13.57
2023-01-03T00:22:03.957Z,12.46
2023-01-03T00:24:31.242Z,13.09
2023-01-03T00:26:58.491Z,12.19
2023-01-03T00:29:27.015Z,12.53
2023-01-03T00:31:54.171Z,11.92
2023-01-03T00:34:21.922Z,12.01
2023-01-03T00:36:49.331Z,11.42
2023-01-03T00:39:16.819Z,11.28
2023-01-03T00:41:43.654Z,12.14
2023-01-03T00:44:12.699Z,11.03
2023-01-03T00:46:40.558Z,11.84
2023-01-03T00:49:08.137Z,12.27
2023-01-03T00:51:35.725Z,11.97
2023-01-03T00:54:03.262Z,12.41
2023-01-03T00:56:32.187Z,12.65
2023-01-03T00:58:59.768Z,10.98
2023-01-03T01:01:32.804Z,12.01
2023-01-03T01:04:11.690Z,12.54
2023-01-03T01:06:40.065Z,12.39
2023-01-03T01:09:07.961Z,12.30
2023-01-03T01:11:35.740Z,11.92
2023-01-03T01:14:02.555Z,12.42
2023-01-03T01:16:30.424Z,12.39
2023-01-03T01:18:59.303Z,12.14
2023-01-03T01:21:27.768Z,11.98
2023-01-03T01:23:54.778Z,12.46
2023-01-03T01:26:23.021Z,10.99
2023-01-03T01:28:50.346Z,11.71
2023-01-03T01:31:19.793Z,12.03
2023-01-03T01:33:48.470Z,11.91
2023-01-03T01:36:19.858Z,12.14
2023-01-03T01:38:47.823Z,11.85
2023-01-03T01:41:15.990Z,11.61
2023-01-03T01:44:15.856Z,11.79
2023-01-03T01:46:42.839Z,12.46
2023-01-03T01:49:13.511Z,11.19
2023-01-03T01:51:40.656Z,11.67
2023-01-03T01:54:08.438Z,11.87
2023-01-03T01:56:38.684Z,11.60
2023-01-03T01:59:06.484Z,11.49
2023-01-03T02:01:34.379Z,11.72
2023-01-03T02:04:05.909Z,11.80
2023-01-03T02:06:33.719Z,11.40
2023-01-03T02:09:01.857Z,11.22
2023-01-03T02:11:47.508Z,11.91
2023-01-03T02:14:23.281Z,12.17
2023-01-03T02:17:08.006Z,11.48
2023-01-03T02:19:49.525Z,11.55
2023-01-03T02:22:35.410Z,12.09
2023-01-03T02:25:22.128Z,11.64
2023-01-03T02:27:51.983Z,11.76
2023-01-03T02:30:21.634Z,12.23
2023-01-03T02:32:53.735Z,12.08
2023-01-03T02:35:53.612Z,11.98
2023-01-03T02:38:55.830Z,10.65
2023-01-03T02:41:41.164Z,11.43
2023-01-03T02:44:10.792Z,11.81
2023-01-03T02:46:57.699Z,11.24
2023-01-03T02:49:32.430Z,10.90
2023-01-03T02:52:02.008Z,11.52
2023-01-03T02:54:30.892Z,11.36
2023-01-03T02:56:57.440Z,11.12
2023-01-03T02:59:29.844Z,11.48
2023-01-03T03:01:57.389Z,11.67
2023-01-03T03:04:24.813Z,11.61
2023-01-03T03:07:14.177Z,10.89
2023-01-03T03:09:59.238Z,11.80
2023-01-03T03:12:46.914Z,11.95
2023-01-03T03:15:15.725Z,11.74
2023-01-03T03:17:42.836Z,11.48
2023-01-03T03:20:34.774Z,11.44
2023-01-03T03:23:23.510Z,11.55
2023-01-03T03:25:52.224Z,11.35
2023-01-03T03:28:36.743Z,10.97
2023-01-03T03:31:09.382Z,11.49
2023-01-03T03:33:39.636Z,11.41
2023-01-03T03:36:11.036Z,11.61
2023-01-03T03:38:40.919Z,11.24
2023-01-03T03:41:41.558Z,11.40
2023-01-03T03:44:31.789Z,12.25
2023-01-03T03:47:04.679Z,11.13
2023-01-03T03:49:39.648Z,11.80
2023-01-03T03:52:14.899Z,12.11
2023-01-03T03:54:44.701Z,9.90
2023-01-03T03:57:15.469Z,11.33
2023-01-03T03:59:44.959Z,11.77
2023-01-03T04:02:13.501Z,10.94
2023-01-03T04:04:43.368Z,11.23
2023-01-03T04:07:10.081Z,11.00
2023-01-03T04:09:36.987Z,11.59
2023-01-03T04:12:03.987Z,11.72
2023-01-03T04:14:30.503Z,11.79
2023-01-03T04:16:57.332Z,10.97
2023-01-03T04:19:24.086Z,11.01
2023-01-03T04:21:50.877Z,11.22
2023-01-03T04:24:20.142Z,11.78
2023-01-03T04:26:46.954Z,10.83
2023-01-03T04:29:14.090Z,10.90
2023-01-03T04:31:41.608Z,11.68
2023-01-03T04:34:09.236Z,11.74
2023-01-03T04:36:36.387Z,11.15
2023-01-03T04:39:03.413Z,11.63
2023-01-03T04:41:30.708Z,11.75
2023-01-03T04:44:04.151Z,10.40
2023-01-03T04:46:31.896Z,11.08
2023-01-03T04:49:00.309Z,11.45
2023-01-03T04:51:28.452Z,10.29
2023-01-03T04:53:55.573Z,10.97
2023-01-03T04:56:29.398Z,10.98
2023-01-03T04:58:56.293Z,11.39
2023-01-03T05:01:23.413Z,11.45
2023-01-03T05:03:50.921Z,11.11
2023-01-03T05:06:19.342Z,11.29
2023-01-03T05:08:47.330Z,10.76
2023-01-03T05:11:14.200Z,10.25
2023-01-03T05:13:41.577Z,11.18
2023-01-03T05:16:10.150Z,10.32
2023-01-03T05:18:37.654Z,11.09
2023-01-03T05:21:26.982Z,10.65
2023-01-03T05:24:12.161Z,11.08
2023-01-03T05:26:40.343Z,10.99
2023-01-03T05:29:07.730Z,9.98
2023-01-03T05:31:34.400Z,10.30
2023-01-03T05:34:01.493Z,10.45
2023-01-03T05:36:28.089Z,10.84
2023-01-03T05:38:55.819Z,11.23
2023-01-03T05:41:45.038Z,10.75
2023-01-03T05:44:11.476Z,10.96
2023-01-03T05:46:38.155Z,10.68
2023-01-03T05:49:05.900Z,10.72
2023-01-03T05:51:32.341Z,10.99
2023-01-03T05:53:58.847Z,10.83
2023-01-03T05:56:25.520Z,10.58
2023-01-03T05:58:52.233Z,10.43
2023-01-03T06:01:19.241Z,10.55
2023-01-03T06:03:46.632Z,10.33
2023-01-03T06:06:14.028Z,10.65
2023-01-03T06:08:41.629Z,10.90
2023-01-03T06:11:08.805Z,10.16
2023-01-03T06:13:36.116Z,10.30
2023-01-03T06:16:25.984Z,10.72
2023-01-03T06:18:52.486Z,10.54
2023-01-03T06:21:19.384Z,10.22
2023-01-03T06:23:47.567Z,10.13
2023-01-03T06:26:18.399Z,10.68
2023-01-03T06:28:45.162Z,10.14
2023-01-03T06:31:12.638Z,10.18
2023-01-03T06:33:39.771Z,10.61
2023-01-03T06:36:07.970Z,10.85
2023-01-03T06:38:35.938Z,10.74
2023-01-03T06:41:03.032Z,10.15
2023-01-03T06:43:29.846Z,9.89
2023-01-03T06:46:16.328Z,10.33
2023-01-03T06:49:01.537Z,10.65
2023-01-03T06:51:46.995Z,10.18
2023-01-03T06:54:24.004Z,10.27
2023-01-03T06:56:50.871Z,10.54
2023-01-03T06:59:17.902Z,10.91
2023-01-03T07:01:45.014Z,10.64
2023-01-03T07:04:12.283Z,10.26
2023-01-03T07:06:39.333Z,10.48
2023-01-03T07:09:05.866Z,10.41
2023-01-03T07:11:32.570Z,10.14
2023-01-03T07:13:59.626Z,10.18
2023-01-03T07:16:29.632Z,10.24
2023-01-03T07:18:57.027Z,10.24
2023-01-03T07:21:28.386Z,9.89
2023-01-03T07:23:56.088Z,10.04
2023-01-03T07:26:24.415Z,10.31
2023-01-03T07:28:51.593Z,10.57
2023-01-03T07:31:18.400Z,10.22
2023-01-03T07:33:45.507Z,10.43
2023-01-03T07:36:13.032Z,10.40
2023-01-03T07:38:40.616Z,10.40
2023-01-03T07:41:10.003Z,9.62
2023-01-03T07:43:37.734Z,9.98
2023-01-03T07:46:40.146Z,10.25
2023-01-03T07:49:11.523Z,10.14
2023-01-03T07:51:38.594Z,9.98
2023-01-03T07:54:05.232Z,9.96
2023-01-03T07:56:32.126Z,9.58
2023-01-03T07:58:59.822Z,10.14
2023-01-03T08:01:26.967Z,10.39
2023-01-03T08:03:54.019Z,10.14
2023-01-03T08:06:21.938Z,9.99
2023-01-03T08:09:11.229Z,10.29
2023-01-03T08:11:56.679Z,10.13
2023-01-03T08:14:26.117Z,10.33
2023-01-03T08:16:53.756Z,10.30
2023-01-03T08:19:20.566Z,10.26
2023-01-03T08:21:47.420Z,9.97
2023-01-03T08:24:14.319Z,10.15
2023-01-03T08:26:41.068Z,10.35
2023-01-03T08:29:09.022Z,10.37
2023-01-03T08:31:38.934Z,10.27
2023-01-03T08:34:16.123Z,10.14
2023-01-03T08:36:48.143Z,10.45
2023-01-03T08:39:17.197Z,10.23
2023-01-03T08:41:46.721Z,9.95
2023-01-03T08:44:14.140Z,9.84
2023-01-03T08:46:43.984Z,10.17
2023-01-03T08:49:12.012Z,10.26
2023-01-03T08:51:39.546Z,10.47
2023-01-03T08:54:06.314Z,10.97
2023-01-03T08:56:34.746Z,10.34
2023-01-03T08:59:01.524Z,10.22
2023-01-03T09:01:28.286Z,10.07
2023-01-03T09:03:55.103Z,10.68
2023-01-03T09:06:21.793Z,9.73
2023-01-03T09:08:48.419Z,10.02
2023-01-03T09:11:14.964Z,10.28
2023-01-03T09:13:41.937Z,10.39
2023-01-03T09:16:10.421Z,11.04
2023-01-03T09:18:38.308Z,10.92
2023-01-03T09:21:06.631Z,10.50
2023-01-03T09:23:34.819Z,10.81
2023-01-03T09:26:02.376Z,10.42
2023-01-03T09:28:30.047Z,10.61
2023-01-03T09:30:58.547Z,10.99
2023-01-03T09:33:26.343Z,10.24
2023-01-03T09:35:56.792Z,11.34
2023-01-03T09:38:24.084Z,11.15
2023-01-03T09:41:02.712Z,9.95
2023-01-03T09:43:34.412Z,10.82
2023-01-03T09:46:03.134Z,10.67
2023-01-03T09:48:33.421Z,11.15
2023-01-03T09:51:21.144Z,11.94
2023-01-03T09:54:05.807Z,12.53
2023-01-03T09:56:51.554Z,11.47
2023-01-03T09:59:54.973Z,11.06
2023-01-03T10:03:01.039Z,11.72
2023-01-03T10:05:39.530Z,11.63
2023-01-03T10:08:06.434Z,11.25
2023-01-03T10:10:39.709Z,11.40
2023-01-03T10:13:06.426Z,11.67
2023-01-03T10:15:51.828Z,10.99
2023-01-03T10:18:37.102Z,11.52
2023-01-03T10:21:09.563Z,11.71
2023-01-03T10:23:36.588Z,11.85
2023-01-03T10:26:09.360Z,11.87
2023-01-03T10:28:41.300Z,12.48
2023-01-03T10:31:27.647Z,11.85
2023-01-03T10:33:54.643Z,11.27
2023-01-03T10:36:22.127Z,12.37
2023-01-03T10:38:53.180Z,11.92
2023-01-03T10:41:37.493Z,12.19
2023-01-03T10:44:04.281Z,12.40
2023-01-03T10:46:31.987Z,12.09
2023-01-03T10:49:28.033Z,12.81
2023-01-03T10:52:05.385Z,12.12
2023-01-03T10:54:42.549Z,12.37
2023-01-03T10:57:29.643Z,11.66
2023-01-03T10:59:56.337Z,10.91
2023-01-03T11:02:25.226Z,12.38
2023-01-03T11:05:07.723Z,12.32
2023-01-03T11:07:34.269Z,12.62
2023-01-03T11:10:00.680Z,13.59
2023-01-03T11:12:29.685Z,13.48
2023-01-03T11:14:57.663Z,12.48
2023-01-03T11:17:26.775Z,12.80
2023-01-03T11:19:53.603Z,13.26
2023-01-03T11:22:29.763Z,12.24
2023-01-03T11:25:17.569Z,13.01
2023-01-03T11:28:15.677Z,12.78
2023-01-03T11:30:42.553Z,12.81
2023-01-03T11:33:08.984Z,13.30
2023-01-03T11:35:50.916Z,13.77
2023-01-03T11:38:36.339Z,13.45
2023-01-03T11:41:02.919Z,13.53
2023-01-03T11:43:38.676Z,13.51
2023-01-03T11:46:29.551Z,13.12
2023-01-03T11:49:08.587Z,13.53
2023-01-03T11:51:46.724Z,12.63
2023-01-03T11:54:31.943Z,13.29
2023-01-03T11:57:02.717Z,13.27
2023-01-03T11:59:38.467Z,13.31
2023-01-03T12:02:29.761Z,13.76
2023-01-03T12:05:02.867Z,12.63
2023-01-03T12:07:48.370Z,12.56
2023-01-03T12:10:34.122Z,13.63
2023-01-03T12:13:00.658Z,12.45
2023-01-03T12:15:33.661Z,13.04
2023-01-03T12:18:09.354Z,13.36
2023-01-03T12:20:41.487Z,13.85
2023-01-03T12:23:12.822Z,13.91
2023-01-03T12:25:43.516Z,13.66
2023-01-03T12:28:14.439Z,13.65
2023-01-03T12:30:41.826Z,12.61
2023-01-03T12:33:18.570Z,12.43
2023-01-03T12:35:48.626Z,13.71
2023-01-03T12:38:18.956Z,13.53
2023-01-03T12:41:14.975Z,13.63
2023-01-03T12:43:46.903Z,13.42
2023-01-03T12:46:18.818Z,13.66
2023-01-03T12:48:54.110Z,13.13
2023-01-03T12:51:23.060Z,12.69
2023-01-03T12:53:50.187Z,13.89
2023-01-03T12:56:29.750Z,14.37
2023-01-03T12:58:59.652Z,14.11
2023-01-03T13:01:48.793Z,13.04
2023-01-03T13:04:24.330Z,13.04
2023-01-03T13:07:02.761Z,13.16
2023-01-03T13:09:33.333Z,13.26
2023-01-03T13:12:04.281Z,13.34
2023-01-03T13:14:49.765Z,13.40
2023-01-03T13:17:18.360Z,13.49
2023-01-03T13:19:57.142Z,13.36
2023-01-03T13:22:35.933Z,12.79
2023-01-03T13:25:25.294Z,12.97
2023-01-03T13:27:52.754Z,13.86
2023-01-03T13:30:23.671Z,13.70
2023-01-03T13:33:09.023Z,14.05
2023-01-03T13:35:52.474Z,13.50
2023-01-03T13:38:39.120Z,13.44
2023-01-03T13:41:18.463Z,13.90
2023-01-03T13:43:48.580Z,13.78
2023-01-03T13:46:22.738Z,14.21
2023-01-03T13:48:58.070Z,13.61
2023-01-03T13:51:26.656Z,13.94
2023-01-03T13:53:54.682Z,13.80
2023-01-03T13:56:25.957Z,13.54
2023-01-03T13:58:55.014Z,13.18
2023-01-03T14:01:30.955Z,13.18
2023-01-03T14:03:57.930Z,13.49
2023-01-03T14:06:33.423Z,13.14
2023-01-03T14:09:09.871Z,13.34
2023-01-03T14:12:09.269Z,13.51
2023-01-03T14:14:38.351Z,13.32
2023-01-03T14:17:14.292Z,13.59
2023-01-03T14:19:43.293Z,13.22
2023-01-03T14:22:28.011Z,13.20
2023-01-03T14:24:59.562Z,13.30
2023-01-03T14:27:35.922Z,13.25
2023-01-03T14:30:03.633Z,12.86
2023-01-03T14:32:35.108Z,13.19
2023-01-03T14:35:03.279Z,13.04
2023-01-03T14:37:33.139Z,12.93
2023-01-03T14:40:04.439Z,13.01
2023-01-03T14:42:32.085Z,13.29
2023-01-03T14:45:00.723Z,13.24
2023-01-03T14:47:36.156Z,12.99
2023-01-03T14:50:04.365Z,12.91
2023-01-03T14:52:33.532Z,12.77
2023-01-03T14:55:06.629Z,12.69
2023-01-03T14:57:38.274Z,12.66
2023-01-03T15:00:09.623Z,12.58
2023-01-03T15:02:39.108Z,12.34
2023-01-03T15:05:27.907Z,12.20
2023-01-03T15:07:54.962Z,12.17
2023-01-03T15:10:22.137Z,12.22
2023-01-03T15:12:51.142Z,11.95
2023-01-03T15:15:28.503Z,11.97
2023-01-03T15:18:01.504Z,12.08
2023-01-03T15:20:34.073Z,11.84
2023-01-03T15:23:00.643Z,11.91
2023-01-03T15:25:47.466Z,11.92
2023-01-03T15:28:13.906Z,11.89
2023-01-03T15:30:48.342Z,11.82
2023-01-03T15:33:34.267Z,11.90
2023-01-03T15:36:03.053Z,11.96
2023-01-03T15:38:29.724Z,12.16
2023-01-03T15:40:56.395Z,12.16
2023-01-03T15:43:27.006Z,12.18
2023-01-03T15:46:04.070Z,12.15
2023-01-03T15:48:37.109Z,12.28
2023-01-03T15:51:05.073Z,12.25
2023-01-03T15:53:39.230Z,12.39
2023-01-03T15:56:31.177Z,12.43
2023-01-03T15:58:57.897Z,12.46
2023-01-03T16:01:25.130Z,12.51
2023-01-03T16:03:53.682Z,12.40
2023-01-03T16:06:20.415Z,12.39
2023-01-03T16:08:47.667Z,12.40
2023-01-03T16:11:34.919Z,12.17
2023-01-03T16:14:07.025Z,12.37
2023-01-03T16:16:36.202Z,12.33
2023-01-03T16:19:04.736Z,12.50
2023-01-03T16:21:32.343Z,12.50
2023-01-03T16:24:00.607Z,12.29
2023-01-03T16:26:27.423Z,12.43
2023-01-03T16:28:54.274Z,12.39
2023-01-03T16:31:28.322Z,12.67
2023-01-03T16:33:55.923Z,12.72
2023-01-03T16:36:36.708Z,12.92
2023-01-03T16:39:06.350Z,12.72
2023-01-03T16:41:34.931Z,12.97
2023-01-03T16:44:01.644Z,12.89
2023-01-03T16:46:30.090Z,12.86
2023-01-03T16:48:58.663Z,12.90
2023-01-03T16:51:27.280Z,12.87
2023-01-03T16:53:55.096Z,13.07
2023-01-03T16:56:22.018Z,12.81
2023-01-03T16:58:49.030Z,12.80
2023-01-03T17:01:15.776Z,12.80
2023-01-03T17:03:43.089Z,12.94
2023-01-03T17:06:23.541Z,13.07
2023-01-03T17:08:50.481Z,13.06
2023-01-03T17:11:17.535Z,12.94
2023-01-03T17:13:46.273Z,13.13
2023-01-03T17:16:17.814Z,13.17
2023-01-03T17:18:46.916Z,12.96
2023-01-03T17:21:20.778Z,13.02
2023-01-03T17:23:47.979Z,13.25
2023-01-03T17:26:17.291Z,13.12
2023-01-03T17:28:45.066Z,12.98
2023-01-03T17:31:16.523Z,13.01
2023-01-03T17:33:43.127Z,13.08
2023-01-03T17:36:17.092Z,13.32
2023-01-03T17:38:44.299Z,13.16
2023-01-03T17:41:18.660Z,12.97
2023-01-03T17:43:45.633Z,13.03
2023-01-03T17:46:39.366Z,13.15
2023-01-03T17:52:16.677Z,12.97
2023-01-03T17:54:43.693Z,13.09
2023-01-03T17:57:12.613Z,12.77
2023-01-03T17:59:39.696Z,12.75
2023-01-03T18:02:19.763Z,13.20
2023-01-03T18:05:14.144Z,13.11
2023-01-03T18:07:34.592Z,13.06
2023-01-03T18:10:01.601Z,12.73
2023-01-03T18:12:28.100Z,13.05
2023-01-03T18:14:55.809Z,12.78
2023-01-03T18:17:22.988Z,12.97
2023-01-03T18:19:49.858Z,13.22
2023-01-03T18:22:18.361Z,13.17
2023-01-03T18:24:45.554Z,12.92
2023-01-03T18:27:14.775Z,12.91
2023-01-03T18:29:43.036Z,12.94
2023-01-03T18:32:29.428Z,12.89
2023-01-03T18:34:56.549Z,13.08
2023-01-03T18:37:24.594Z,13.05
2023-01-03T18:39:52.219Z,12.99
2023-01-03T18:42:39.995Z,12.96
2023-01-03T18:45:07.630Z,12.82
2023-01-03T18:47:34.464Z,12.58
2023-01-03T18:50:01.308Z,12.90
2023-01-03T18:52:33.249Z,13.02
2023-01-03T18:54:59.784Z,12.81
2023-01-03T18:57:29.464Z,12.68
2023-01-03T18:59:56.149Z,12.43
2023-01-03T19:02:22.974Z,12.76
2023-01-03T19:04:52.494Z,12.62
2023-01-03T19:07:22.233Z,12.52
2023-01-03T19:09:52.034Z,12.16
2023-01-03T19:12:19.139Z,12.55
2023-01-03T19:14:46.895Z,12.63
2023-01-03T19:17:17.935Z,12.55
2023-01-03T19:19:45.282Z,12.51
2023-01-03T19:22:28.393Z,12.34
2023-01-03T19:24:57.208Z,12.31
2023-01-03T19:27:35.488Z,12.50
2023-01-03T19:30:03.148Z,12.09
2023-01-03T19:32:29.979Z,12.38
2023-01-03T19:34:56.678Z,12.53
2023-01-03T19:37:23.595Z,12.36
2023-01-03T19:39:50.092Z,12.56
2023-01-03T19:42:36.596Z,12.59
2023-01-03T19:45:11.656Z,12.37
2023-01-03T19:47:39.220Z,12.32
2023-01-03T19:50:17.323Z,12.58
2023-01-03T19:52:43.695Z,12.73
2023-01-03T19:55:11.537Z,12.43
2023-01-03T19:57:40.216Z,12.52
2023-01-03T20:00:07.230Z,12.45
2023-01-03T20:02:34.279Z,12.60
2023-01-03T20:05:01.300Z,12.39
2023-01-03T20:07:28.037Z,12.81
2023-01-03T20:09:54.732Z,12.63
2023-01-03T20:12:26.124Z,12.61
2023-01-03T20:14:54.843Z,12.89
2023-01-03T20:17:22.440Z,12.95
2023-01-03T20:19:49.260Z,12.87
2023-01-03T20:22:37.695Z,12.65
2023-01-03T20:25:03.491Z,12.89
2023-01-03T20:27:30.223Z,12.83
2023-01-03T20:29:56.764Z,12.86
2023-01-03T20:32:24.881Z,13.08
2023-01-03T20:34:51.560Z,12.67
2023-01-03T20:37:21.919Z,12.94
2023-01-03T20:39:49.638Z,12.89
2023-01-03T20:42:22.051Z,12.55
2023-01-03T20:44:49.543Z,12.94
2023-01-03T20:47:25.449Z,12.67
2023-01-03T20:49:54.004Z,12.59
2023-01-03T20:52:21.238Z,12.64
2023-01-03T20:54:48.439Z,12.88
2023-01-03T20:57:16.631Z,12.46
2023-01-03T20:59:44.538Z,12.62
2023-01-03T21:02:11.876Z,12.63
2023-01-03T21:04:39.694Z,12.60
2023-01-03T21:07:11.625Z,12.17
2023-01-03T21:09:39.176Z,12.18
2023-01-03T21:12:06.492Z,12.50
2023-01-03T21:14:33.446Z,12.60
2023-01-03T21:17:01.360Z,12.46
2023-01-03T21:19:28.131Z,12.23
2023-01-03T21:21:55.545Z,12.16
2023-01-03T21:24:23.259Z,12.32
2023-01-03T21:26:50.779Z,12.11
2023-01-03T21:29:18.343Z,12.16
2023-01-03T21:31:45.521Z,11.98
2023-01-03T21:34:25.594Z,12.25
2023-01-03T21:36:52.896Z,12.20
2023-01-03T21:39:19.959Z,12.02
2023-01-03T21:42:06.735Z,12.22
2023-01-03T21:44:33.187Z,12.30
2023-01-03T21:46:59.992Z,11.82
2023-01-03T21:49:27.161Z,12.47
2023-01-03T21:51:53.560Z,12.39
2023-01-03T21:54:20.509Z,12.30
2023-01-03T21:56:47.338Z,12.07
2023-01-03T21:59:15.109Z,11.95
2023-01-03T22:02:01.974Z,12.29
2023-01-03T22:04:28.772Z,12.40
2023-01-03T22:07:01.584Z,12.40
2023-01-03T22:09:47.741Z,12.46
2023-01-03T22:12:15.939Z,12.28
2023-01-03T22:14:43.235Z,12.13
2023-01-03T22:17:10.070Z,12.21
2023-01-03T22:19:37.068Z,12.17
2023-01-03T22:22:04.912Z,12.48
2023-01-03T22:24:31.905Z,12.40
2023-01-03T22:26:59.887Z,12.37
2023-01-03T22:29:26.488Z,12.15
2023-01-03T22:31:53.569Z,11.71
2023-01-03T22:34:20.798Z,12.30
2023-01-03T22:36:48.380Z,12.60
2023-01-03T22:39:16.349Z,12.06
2023-01-03T22:41:44.502Z,12.33
2023-01-03T22:44:12.809Z,12.46
2023-01-03T22:46:40.810Z,12.38
2023-01-03T22:49:07.401Z,11.97
2023-01-03T22:51:39.534Z,12.74
2023-01-03T22:54:06.521Z,12.23
2023-01-03T22:56:34.352Z,12.28
2023-01-03T22:59:01.453Z,12.16
2023-01-03T23:01:28.458Z,11.92
2023-01-03T23:04:00.102Z,11.93
2023-01-03T23:06:28.856Z,11.96
2023-01-03T23:08:55.715Z,12.23
2023-01-03T23:11:43.458Z,12.18
2023-01-03T23:14:11.682Z,12.34
2023-01-03T23:16:38.273Z,11.83
2023-01-03T23:19:06.602Z,11.65
2023-01-03T23:21:34.043Z,11.96
2023-01-03T23:24:01.126Z,12.35
2023-01-03T23:26:27.631Z,12.13
2023-01-03T23:28:54.868Z,12.60
2023-01-03T23:31:21.734Z,12.27
2023-01-03T23:33:48.320Z,12.15
2023-01-03T23:36:16.462Z,11.84
2023-01-03T23:38:43.818Z,11.79
2023-01-03T23:41:10.421Z,12.46
2023-01-03T23:43:37.592Z,12.27
2023-01-03T23:46:04.686Z,12.46
2023-01-03T23:48:31.734Z,12.16
2023-01-03T23:51:02.382Z,12.49
2023-01-03T23:53:29.028Z,12.25
2023-01-03T23:55:55.586Z,12.14
2023-01-03T23:58:22.176Z,12.87
